Portada
METAR-TAF:

METAR-TAF

Aeroports :

El Dorado, Arkansas, Estats Units d'Amèrica

latitud: 33-13-15N, longitud: 092-48-48W, altitud: 84 m

Observació

L'informe es va fer fa 1 hora i 3 minuts, a les 22:53 UTC
Vent 9 kt del Nord
Temperatura 27°C
Humitat 58%
Pressió 1018 hPa
Visibilitat: 16.1 km
Cel clar

METAR: KELD 292253Z AUTO 35009KT 10SM CLR 27/18 A3006 RMK AO2 SLP175 T02670178

Hora: 18:56 (23:56 UTC)

Pronòstic

L'informe es va fer fa 36 minuts, a les 23:20 UTC
Pronòstic vàlid del 30 a les 00 UTC al 30 a les 24 UTC
Vent 4 kt del Nord
Visibilitat: 10 km
Cel clar
A partir de les 30 a les 1500 UTC
Vent 7 kt del Nord/Nord-Est
Visibilitat: 10 km
Cel clar

TAF: KELD 292320Z 3000/3024 35004KT P6SM SKC FM301500 02007KT P6SM SKC

Observacions i pronòstics meteorològics de més de 4000 aeroports (METAR i TAF).

Les estacions disponibles són els punts grocs i vermells al mapa.

Posi el ratolí al punt desitjat per veure el nom de l'estació.

Feu clic per veure les observacions i els pronòstics meteorològics.

Per canviar el mapa: feu clic els botons verds amb una creu de color negre per apropar; al botó verd amb un guió per allunyar la imatge; o en les fletxes verdes per a mapes adjacents.


METAR-TAF: